Time;durP1;ratioP1;P1;durP2;ratioP2;P2;SDS_P1;SDS_P2;PMS_P1;PMS_P2;Temp;Humidity;BMP_temperature;BMP_pressure;BME280_temperature;BME280_humidity;BME280_pressure;Samples;Min_cycle;Max_cycle;Signal;HPM_P1;HPM_P2
2021/12/04 00:02:09;;;;;;;28.42;12.02;;;;;;;0.25;68.96;99229.88;5113606;27;20374;-78
2021/12/04 00:04:41;;;;;;;29.88;12.30;;;;;;;0.18;69.15;99231.78;5115041;27;20043;-79
2021/12/04 00:07:10;;;;;;;27.98;11.70;;;;;;;0.27;68.97;99228.94;5114508;28;20044;-79
2021/12/04 00:09:38;;;;;;;29.17;12.20;;;;;;;0.24;68.71;99230.78;5114023;28;20480;-79
2021/12/04 00:12:07;;;;;;;25.75;11.60;;;;;;;0.17;69.11;99232.72;5114002;28;20059;-79
2021/12/04 00:14:36;;;;;;;30.30;12.95;;;;;;;0.15;70.20;99231.88;5113916;27;20036;-79
2021/12/04 00:17:05;;;;;;;27.85;11.73;;;;;;;0.10;69.31;99234.66;5113007;27;20047;-79
2021/12/04 00:19:33;;;;;;;28.27;13.75;;;;;;;0.13;69.83;99236.34;5115365;28;20043;-79
2021/12/04 00:22:02;;;;;;;32.38;14.77;;;;;;;0.10;70.12;99241.72;5113457;27;20496;-79
2021/12/04 00:24:30;;;;;;;29.35;13.75;;;;;;;0.14;69.77;99241.63;5113512;28;20043;-79
2021/12/04 00:26:57;;;;;;;29.85;12.57;;;;;;;0.36;69.67;99230.50;5113317;27;20043;-79
2021/12/04 00:29:25;;;;;;;26.58;13.63;;;;;;;0.41;68.55;99225.97;5097128;28;20039;-79
2021/12/04 00:31:57;;;;;;;26.75;11.43;;;;;;;0.41;68.07;99227.72;5112845;28;20043;-79
2021/12/04 00:34:26;;;;;;;29.42;11.98;;;;;;;0.45;68.88;99229.41;5114178;28;20194;-79
2021/12/04 00:37:09;;;;;;;25.75;11.30;;;;;;;0.44;69.22;99227.66;5113474;27;20051;-79
2021/12/04 00:50:40;;;;;;;25.42;11.35;;;;;;;0.17;68.72;99219.44;5046954;28;20065;-79
2021/12/04 00:53:07;;;;;;;27.52;12.63;;;;;;;0.16;68.47;99228.31;5048198;28;20078;-79
2021/12/04 00:55:36;;;;;;;26.75;11.85;;;;;;;0.06;68.34;99224.13;5048648;28;20056;-79
2021/12/04 00:58:04;;;;;;;25.77;12.38;;;;;;;-0.05;68.42;99219.94;5050372;28;20419;-79
2021/12/04 01:00:32;;;;;;;32.08;12.63;;;;;;;0.06;69.20;99214.38;5049532;28;20548;-79
2021/12/04 01:02:59;;;;;;;28.02;12.23;;;;;;;0.17;69.15;99207.94;5039369;28;20569;-79
2021/12/04 01:05:26;;;;;;;24.35;11.30;;;;;;;0.07;67.90;99213.47;5050371;28;20049;-79
2021/12/04 01:07:54;;;;;;;26.63;11.75;;;;;;;0.06;67.95;99217.06;5050270;28;20045;-79
2021/12/04 01:10:22;;;;;;;27.05;11.10;;;;;;;0.04;67.93;99224.19;5050184;28;20061;-79
2021/12/04 01:12:50;;;;;;;28.42;11.75;;;;;;;0.00;68.76;99222.50;5050295;28;20490;-79
2021/12/04 01:15:18;;;;;;;28.05;11.77;;;;;;;-0.01;68.99;99215.41;5049686;28;20095;-79
2021/12/04 01:17:46;;;;;;;28.38;12.07;;;;;;;0.07;68.54;99208.16;5048751;28;20061;-79
2021/12/04 01:20:13;;;;;;;24.27;11.38;;;;;;;0.00;67.65;99211.88;5049157;28;20048;-79
2021/12/04 01:22:41;;;;;;;27.13;10.30;;;;;;;-0.08;68.89;99205.84;5095327;28;20512;-79
2021/12/04 01:25:09;;;;;;;28.13;11.40;;;;;;;-0.04;68.37;99204.88;5111957;28;20553;-80
2021/12/04 01:27:37;;;;;;;24.67;10.68;;;;;;;-0.08;68.42;99206.75;5112541;28;20093;-79
2021/12/04 01:30:08;;;;;;;24.20;10.30;;;;;;;-0.08;68.20;99205.84;5112246;27;20042;-79
2021/12/04 01:32:36;;;;;;;24.48;10.65;;;;;;;-0.11;68.26;99204.16;5112252;28;20084;-79
2021/12/04 01:35:03;;;;;;;24.92;10.65;;;;;;;-0.12;67.92;99196.22;5111795;27;20097;-79
2021/12/04 01:37:31;;;;;;;33.72;10.65;;;;;;;-0.23;68.59;99205.31;5112697;28;20070;-79
2021/12/04 01:39:58;;;;;;;27.63;11.82;;;;;;;-0.06;68.88;99217.31;5112724;28;20047;-80
2021/12/04 01:42:26;;;;;;;26.92;11.30;;;;;;;-0.30;68.27;99212.50;5112121;27;20047;-79
2021/12/04 01:44:53;;;;;;;26.50;11.73;;;;;;;-0.12;67.60;99206.84;5112329;28;20043;-80
2021/12/04 01:47:22;;;;;;;25.60;10.77;;;;;;;-0.19;67.60;99212.28;5112233;28;20048;-79
2021/12/04 01:49:51;;;;;;;27.88;12.20;;;;;;;-0.21;67.41;99205.25;5112399;28;20032;-79
2021/12/04 01:52:20;;;;;;;27.85;12.20;;;;;;;-0.37;68.05;99202.94;5112383;27;20051;-79
2021/12/04 01:54:50;;;;;;;24.08;10.60;;;;;;;-0.25;67.96;99203.56;5112412;28;20416;-79
2021/12/04 01:57:18;;;;;;;27.10;11.07;;;;;;;-0.35;67.64;99203.78;5112275;28;20039;-79
2021/12/04 01:59:46;;;;;;;29.58;11.55;;;;;;;-0.35;68.15;99198.47;5112344;28;20046;-79
2021/12/04 02:02:13;;;;;;;29.50;11.60;;;;;;;-0.35;68.00;99201.13;5112564;27;20044;-79
2021/12/04 02:04:42;;;;;;;28.45;11.68;;;;;;;-0.42;67.71;99199.53;5114109;28;20052;-79
2021/12/04 02:07:12;;;;;;;23.88;10.55;;;;;;;-0.38;67.96;99203.00;5116318;28;20064;-79
2021/12/04 02:09:39;;;;;;;25.70;10.90;;;;;;;-0.36;68.06;99198.53;5116164;27;20043;-78
2021/12/04 02:12:09;;;;;;;30.88;10.63;;;;;;;-0.41;69.02;99200.38;5116072;28;20036;-78
2021/12/04 02:14:39;;;;;;;26.95;11.00;;;;;;;-0.42;68.46;99194.22;5116395;27;20047;-79
2021/12/04 02:17:06;;;;;;;27.90;11.13;;;;;;;-0.31;67.75;99191.34;5116030;27;20486;-79
2021/12/04 02:19:34;;;;;;;26.60;11.55;;;;;;;-0.61;68.79;99191.97;5114018;27;20044;-79
2021/12/04 02:22:04;;;;;;;25.95;11.15;;;;;;;-0.49;68.73;99190.81;5117993;27;20043;-78
2021/12/04 02:24:31;;;;;;;22.83;10.32;;;;;;;-0.61;68.65;99177.81;5102375;28;20047;-79
2021/12/04 02:26:59;;;;;;;25.55;10.80;;;;;;;-0.56;69.44;99175.94;5116115;28;20096;-79
2021/12/04 02:29:27;;;;;;;28.20;11.48;;;;;;;-0.64;69.28;99178.75;5116649;27;20044;-78
2021/12/04 02:31:56;;;;;;;28.85;12.50;;;;;;;-0.60;69.54;99175.16;5116329;28;20044;-80
2021/12/04 02:34:26;;;;;;;27.15;12.18;;;;;;;-0.65;69.66;99163.72;5116358;28;20160;-79
2021/12/04 02:36:54;;;;;;;26.60;12.15;;;;;;;-0.57;69.03;99165.38;5114395;28;20447;-79
2021/12/04 02:39:27;;;;;;;32.80;13.07;;;;;;;-0.56;69.87;99159.16;5116305;28;20100;-79
2021/12/04 02:41:54;;;;;;;30.30;13.50;;;;;;;-0.80;69.74;99161.41;5117879;28;20500;-79
2021/12/04 02:44:24;;;;;;;30.52;12.75;;;;;;;-0.65;70.32;99166.38;5114994;28;20044;-79
2021/12/04 02:46:51;;;;;;;31.02;13.57;;;;;;;-0.39;69.93;99162.31;5116209;28;20114;-79
2021/12/04 02:49:21;;;;;;;27.48;12.55;;;;;;;-0.35;69.34;99157.81;5116170;28;20613;-79
2021/12/04 02:51:48;;;;;;;35.35;14.68;;;;;;;-0.59;70.89;99152.13;5099099;28;20044;-79
2021/12/04 02:54:16;;;;;;;33.70;14.30;;;;;;;-0.51;70.82;99151.97;5095818;28;20044;-79
2021/12/04 02:56:45;;;;;;;33.28;13.55;;;;;;;-0.71;71.99;99153.25;5107806;28;20050;-79
2021/12/04 02:59:13;;;;;;;32.25;14.25;;;;;;;-0.56;71.36;99149.41;5115850;28;20051;-79
2021/12/04 03:01:41;;;;;;;34.90;13.95;;;;;;;-0.50;71.84;99162.53;5115982;27;20043;-80
2021/12/04 03:04:11;;;;;;;34.33;15.48;;;;;;;-0.63;71.83;99163.72;5116080;28;20078;-80
2021/12/04 03:06:41;;;;;;;31.52;13.82;;;;;;;-0.57;71.69;99157.41;5114954;28;20089;-79
2021/12/04 03:09:09;;;;;;;32.78;14.55;;;;;;;-0.59;72.22;99152.13;5115445;27;20044;-79
2021/12/04 03:11:37;;;;;;;31.17;14.40;;;;;;;-0.71;71.98;99147.09;5115874;28;20439;-79
2021/12/04 03:14:06;;;;;;;30.38;15.00;;;;;;;-0.66;72.20;99140.75;5115805;28;20058;-79
2021/12/04 03:16:36;;;;;;;30.50;14.75;;;;;;;-0.61;72.31;99140.69;5115155;28;20047;-79
2021/12/04 03:19:04;;;;;;;29.60;13.77;;;;;;;-0.59;72.20;99144.16;5114855;28;20047;-79
2021/12/04 03:21:34;;;;;;;32.15;14.45;;;;;;;-0.65;72.64;99139.84;5119741;27;20039;-79
2021/12/04 03:24:04;;;;;;;30.77;15.48;;;;;;;-0.59;73.23;99131.78;5134422;27;20062;-79
2021/12/04 03:26:31;;;;;;;31.98;15.45;;;;;;;-0.65;73.20;99131.91;5115210;28;20511;-78
2021/12/04 03:29:02;;;;;;;33.45;14.27;;;;;;;-0.57;72.65;99136.19;5115570;28;20046;-79
2021/12/04 03:31:44;;;;;;;31.38;15.10;;;;;;;-0.63;72.61;99138.03;5115472;28;20126;-79
2021/12/04 03:42:42;;;;;;;33.97;15.20;;;;;;;-0.84;74.52;99123.47;5032772;28;20092;-78
2021/12/04 03:45:10;;;;;;;34.28;15.50;;;;;;;-0.75;73.69;99125.94;5032073;28;20049;-79
2021/12/04 03:47:43;;;;;;;33.30;15.18;;;;;;;-0.89;73.98;99126.22;5032490;28;20084;-79
2021/12/04 03:50:11;;;;;;;37.80;15.95;;;;;;;-0.74;73.61;99125.03;5032454;28;20164;-79
2021/12/04 03:52:39;;;;;;;35.17;16.08;;;;;;;-0.90;74.13;99121.84;5032024;28;20491;-80
2021/12/04 03:55:07;;;;;;;33.50;15.88;;;;;;;-0.86;73.76;99119.97;5032253;28;20057;-79
2021/12/04 03:57:35;;;;;;;31.13;15.35;;;;;;;-0.90;74.15;99113.00;5024165;28;20057;-79
2021/12/04 04:00:05;;;;;;;35.10;16.33;;;;;;;-0.82;74.35;99121.66;5021186;28;20073;-80
2021/12/04 04:02:32;;;;;;;35.10;15.55;;;;;;;-0.88;74.40;99132.41;5032195;28;20041;-80
2021/12/04 04:05:01;;;;;;;33.95;15.25;;;;;;;-0.66;73.58;99127.50;5032189;28;20045;-80
2021/12/04 04:07:29;;;;;;;33.50;16.30;;;;;;;-0.70;73.67;99133.78;5031745;28;20454;-79
2021/12/04 04:09:56;;;;;;;39.42;17.00;;;;;;;-0.83;74.01;99132.31;5031963;28;20053;-79
2021/12/04 04:12:24;;;;;;;34.38;16.40;;;;;;;-1.01;74.26;99129.16;5031989;28;20087;-80
2021/12/04 04:14:51;;;;;;;37.72;16.23;;;;;;;-0.78;73.17;99130.44;5106289;27;20043;-80
2021/12/04 04:17:19;;;;;;;36.40;15.90;;;;;;;-0.90;73.09;99123.59;5093722;28;20044;-80
2021/12/04 04:19:46;;;;;;;32.50;15.95;;;;;;;-0.90;73.49;99124.50;5094877;28;20043;-80
2021/12/04 04:22:15;;;;;;;35.00;16.00;;;;;;;-0.85;72.92;99120.88;5108350;27;20050;-79
2021/12/04 04:24:43;;;;;;;33.15;15.77;;;;;;;-0.99;73.09;99119.38;5113895;28;20035;-80
2021/12/04 04:27:13;;;;;;;36.10;15.88;;;;;;;-0.65;72.52;99121.28;5113329;28;20496;-79
2021/12/04 04:29:41;;;;;;;30.88;14.20;;;;;;;-0.66;72.04;99110.72;5114214;28;20118;-79
2021/12/04 04:32:08;;;;;;;33.22;15.10;;;;;;;-0.81;71.82;99107.50;5114201;28;20043;-79
2021/12/04 04:34:38;;;;;;;29.95;14.95;;;;;;;-0.75;71.38;99106.50;5111791;27;20101;-79
2021/12/04 04:37:15;;;;;;;30.58;14.32;;;;;;;-0.90;71.14;99100.63;5093365;28;20065;-80
2021/12/04 04:59:16;;;;;;;27.92;12.52;;;;;;;-0.55;69.02;99089.28;5031212;28;20062;-79
2021/12/04 05:10:34;;;;;;;28.40;11.45;;;;;;;-0.55;67.91;99082.16;4933622;29;20446;-79
2021/12/04 05:13:05;;;;;;;31.00;14.18;;;;;;;-0.37;67.89;99075.56;4935842;28;20051;-79
2021/12/04 05:15:41;;;;;;;28.35;12.88;;;;;;;-0.36;68.18;99071.13;4970243;28;20058;-79
2021/12/04 05:18:18;;;;;;;29.13;13.55;;;;;;;-0.65;68.27;99076.19;4952635;28;20059;-79
2021/12/04 05:20:52;;;;;;;29.60;13.55;;;;;;;-0.66;67.83;99071.78;4952979;28;20055;-79
2021/12/04 05:23:20;;;;;;;29.92;14.88;;;;;;;-0.42;67.05;99074.81;4989508;28;20061;-79
2021/12/04 05:25:47;;;;;;;26.50;12.07;;;;;;;-0.47;66.23;99066.94;5056552;28;20098;-79
2021/12/04 05:28:16;;;;;;;30.35;16.40;;;;;;;-0.69;66.87;99058.59;5070900;28;20499;-79
2021/12/04 05:30:43;;;;;;;26.70;14.15;;;;;;;-0.63;65.95;99060.25;5055992;28;20453;-80
2021/12/04 05:33:11;;;;;;;24.23;11.38;;;;;;;-0.37;65.26;99045.50;5050903;28;20579;-80
2021/12/04 05:35:38;;;;;;;26.30;12.35;;;;;;;-0.59;65.27;99054.84;5050568;28;20057;-79
2021/12/04 05:38:06;;;;;;;25.83;13.02;;;;;;;-0.36;65.11;99057.88;5050524;28;20056;-79
2021/12/04 05:40:34;;;;;;;34.05;14.77;;;;;;;-0.37;64.89;99056.13;5057587;28;20052;-80
2021/12/04 05:43:02;;;;;;;29.52;13.55;;;;;;;-0.28;64.43;99053.25;5097204;28;20051;-79
2021/12/04 05:45:37;;;;;;;36.83;15.65;;;;;;;-0.48;64.37;99061.69;5097015;28;20044;-79
2021/12/04 05:48:09;;;;;;;42.20;18.38;;;;;;;-0.28;65.15;99055.00;5097135;28;20124;-79
2021/12/04 05:50:54;;;;;;;34.67;15.20;;;;;;;-0.31;64.04;99051.53;5096923;28;20582;-79
2021/12/04 05:53:24;;;;;;;32.22;12.82;;;;;;;-0.49;64.51;99054.63;5097284;28;20040;-79
2021/12/04 05:55:55;;;;;;;23.58;11.27;;;;;;;-0.49;65.71;99054.63;5096534;28;20051;-79
2021/12/04 05:58:24;;;;;;;31.08;13.68;;;;;;;-0.50;64.77;99055.53;5111461;28;20054;-79
2021/12/04 06:00:54;;;;;;;27.65;12.18;;;;;;;-0.45;64.97;99061.59;5117182;28;20112;-79
2021/12/04 06:03:22;;;;;;;28.65;12.18;;;;;;;-0.47;65.25;99048.38;5116906;28;20097;-79
2021/12/04 06:05:49;;;;;;;25.42;11.18;;;;;;;-0.54;64.13;99045.91;5117046;28;20043;-79
2021/12/04 06:08:17;;;;;;;36.95;16.42;;;;;;;-0.51;64.02;99043.19;5117076;28;20048;-79
2021/12/04 06:10:45;;;;;;;29.27;12.57;;;;;;;-0.59;64.15;99051.31;5116989;28;20039;-79
2021/12/04 06:13:12;;;;;;;22.90;10.57;;;;;;;-0.51;64.74;99043.19;5116112;28;20511;-79
2021/12/04 06:15:40;;;;;;;24.50;9.90;;;;;;;-0.60;64.89;99047.81;5116716;28;20040;-79
2021/12/04 06:18:09;;;;;;;23.23;9.93;;;;;;;-0.64;65.35;99047.91;5116444;28;20051;-79
2021/12/04 06:23:22;;;;;;;29.90;11.80;;;;;;;-0.59;65.07;99049.56;5116885;28;20043;-80
2021/12/04 06:25:50;;;;;;;21.42;10.07;;;;;;;-0.69;65.66;99041.84;5113586;27;20046;-79
2021/12/04 06:28:18;;;;;;;22.52;9.23;;;;;;;-0.71;66.03;99043.66;5112660;28;20068;-77
2021/12/04 06:30:45;;;;;;;21.48;9.20;;;;;;;-0.71;66.63;99038.34;5111639;27;20070;-78
2021/12/04 06:33:15;;;;;;;21.42;9.60;;;;;;;-0.74;67.02;99039.28;5112149;28;20048;-78
2021/12/04 06:35:43;;;;;;;23.63;10.38;;;;;;;-0.82;67.26;99034.13;5112955;28;20050;-78
2021/12/04 06:38:12;;;;;;;22.00;9.85;;;;;;;-0.54;66.39;99027.34;5113150;28;20104;-76
2021/12/04 06:40:40;;;;;;;22.77;9.75;;;;;;;-0.26;66.84;99032.84;5101456;28;20052;-79
2021/12/04 06:43:09;;;;;;;22.45;9.77;;;;;;;-0.36;68.01;99034.00;5092491;28;20109;-79
2021/12/04 06:45:38;;;;;;;23.42;10.23;;;;;;;-0.68;68.41;99043.56;5092264;28;20093;-78
2021/12/04 06:48:09;;;;;;;21.58;9.77;;;;;;;-0.64;67.23;99040.81;5092017;28;20132;-78
2021/12/04 06:50:42;;;;;;;22.20;9.52;;;;;;;-0.73;67.43;99049.88;5092232;28;20070;-79
2021/12/04 06:53:19;;;;;;;23.15;10.82;;;;;;;-0.80;68.12;99055.34;5106318;28;20567;-79
2021/12/04 06:55:49;;;;;;;30.73;10.93;;;;;;;-0.82;68.14;99051.84;5114182;28;20508;-79
2021/12/04 06:58:17;;;;;;;21.08;10.10;;;;;;;-0.80;68.03;99052.69;5114074;27;20076;-78
2021/12/04 07:00:45;;;;;;;25.92;10.38;;;;;;;-0.85;68.30;99052.78;5112044;28;20501;-78
2021/12/04 07:03:12;;;;;;;24.98;9.98;;;;;;;-0.97;68.19;99040.69;5111084;28;20100;-77
2021/12/04 07:05:41;;;;;;;27.15;11.52;;;;;;;-0.72;67.21;99040.09;5112412;28;20082;-76
2021/12/04 07:08:10;;;;;;;25.73;10.65;;;;;;;-0.86;67.34;99044.88;5111943;28;20055;-76
2021/12/04 07:10:37;;;;;;;43.28;19.00;;;;;;;-0.78;66.78;99046.44;5112249;28;20051;-78
2021/12/04 07:13:05;;;;;;;22.67;10.25;;;;;;;-0.78;66.75;99046.44;5112024;28;20056;-77
2021/12/04 07:15:33;;;;;;;23.13;9.88;;;;;;;-0.83;66.04;99035.03;5112082;27;20500;-76
2021/12/04 07:18:01;;;;;;;22.95;9.45;;;;;;;-0.81;66.14;99032.38;5111956;28;20056;-78
2021/12/04 07:20:29;;;;;;;31.15;12.80;;;;;;;-0.81;66.10;99035.03;5098744;28;20101;-77
2021/12/04 07:22:59;;;;;;;24.10;10.38;;;;;;;-0.81;65.61;99033.25;5091641;28;20390;-77
2021/12/04 07:25:27;;;;;;;24.40;10.15;;;;;;;-0.80;65.97;99034.13;5111218;27;20069;-76
2021/12/04 07:27:55;;;;;;;23.10;9.85;;;;;;;-0.65;65.92;99031.09;5095781;28;20052;-78
2021/12/04 07:30:23;;;;;;;27.10;10.98;;;;;;;-0.54;65.45;99027.34;5091269;28;20566;-77
2021/12/04 07:32:51;;;;;;;22.95;9.30;;;;;;;-0.66;66.12;99026.69;5091281;28;20044;-76
2021/12/04 07:35:19;;;;;;;21.08;8.95;;;;;;;-0.54;65.38;99025.53;5091451;28;20047;-76
2021/12/04 07:37:46;;;;;;;22.67;10.18;;;;;;;-0.70;65.90;99016.22;5091415;28;20050;-77
2021/12/04 07:40:15;;;;;;;104.60;44.08;;;;;;;-0.60;66.80;99021.28;5091171;28;20044;-78
2021/12/04 07:42:43;;;;;;;59.28;28.80;;;;;;;-0.51;66.12;99019.31;5091138;28;20417;-76
2021/12/04 07:45:11;;;;;;;86.68;49.75;;;;;;;-0.54;66.94;99016.72;5090517;28;20047;-76
2021/12/04 07:47:38;;;;;;;56.08;21.15;;;;;;;-0.51;66.68;99012.19;5091355;28;20060;-77
2021/12/04 07:50:08;;;;;;;23.23;10.23;;;;;;;-0.62;67.20;99017.75;5091395;28;20055;-76
2021/12/04 07:52:37;;;;;;;18.55;8.43;;;;;;;-0.45;68.05;99024.47;5095354;28;20122;-76
2021/12/04 07:55:05;;;;;;;48.38;20.10;;;;;;;-0.49;67.45;99010.38;5090897;28;20125;-77
2021/12/04 07:57:34;;;;;;;49.80;20.00;;;;;;;-0.51;68.69;99011.34;5091455;28;20052;-77
2021/12/04 08:00:02;;;;;;;65.25;24.58;;;;;;;-0.50;67.77;99008.63;5110824;28;20485;-77
2021/12/04 08:02:30;;;;;;;78.28;30.85;;;;;;;-0.32;67.40;99014.41;5110296;28;20039;-77
2021/12/04 08:04:57;;;;;;;40.47;17.13;;;;;;;-0.14;67.10;99010.44;5111253;28;20409;-77
2021/12/04 08:07:25;;;;;;;53.33;19.50;;;;;;;-0.09;67.79;99008.53;5110319;28;20051;-77
2021/12/04 08:09:52;;;;;;;62.67;25.80;;;;;;;0.11;67.33;99009.75;5110430;28;20128;-77
2021/12/04 08:12:20;;;;;;;56.05;21.25;;;;;;;0.14;67.46;99018.53;5111138;28;20043;-76
2021/12/04 08:14:49;;;;;;;24.20;10.77;;;;;;;-0.05;66.48;99019.91;5109698;28;20059;-76
2021/12/04 08:17:16;;;;;;;65.68;23.05;;;;;;;-0.07;67.28;99014.66;5095004;28;20416;-77
2021/12/04 08:19:44;;;;;;;39.85;16.60;;;;;;;-0.07;67.95;99009.34;5091913;28;20051;-76
2021/12/04 08:22:11;;;;;;;28.38;11.95;;;;;;;0.07;67.70;99016.06;5090343;28;20044;-76
2021/12/04 08:24:40;;;;;;;27.25;12.35;;;;;;;0.16;68.17;99010.50;5102672;28;20043;-77
2021/12/04 08:27:09;;;;;;;34.92;15.50;;;;;;;0.24;67.77;99008.53;5110402;27;20051;-77
2021/12/04 08:29:37;;;;;;;61.50;27.92;;;;;;;0.08;68.14;99009.84;5110603;27;20517;-76
2021/12/04 08:32:07;;;;;;;38.20;17.75;;;;;;;0.22;68.41;99001.50;5109320;28;20047;-78
2021/12/04 08:34:35;;;;;;;55.30;25.70;;;;;;;0.28;67.57;99001.34;5110666;27;20048;-76
2021/12/04 08:37:03;;;;;;;44.03;21.88;;;;;;;0.33;67.65;99001.22;5110582;28;20043;-77
2021/12/04 08:39:31;;;;;;;33.40;15.45;;;;;;;0.45;68.20;99003.53;5110082;28;20046;-77
2021/12/04 08:41:59;;;;;;;27.80;11.93;;;;;;;0.43;67.38;99000.03;5109273;27;20044;-77
2021/12/04 08:44:27;;;;;;;34.88;15.80;;;;;;;0.31;67.55;99005.72;5109231;27;20430;-78
2021/12/04 08:46:54;;;;;;;22.40;10.65;;;;;;;0.35;66.93;98991.41;5110377;28;20044;-77
2021/12/04 08:49:24;;;;;;;30.90;13.85;;;;;;;0.45;66.51;98994.69;5110221;28;20049;-78
2021/12/04 08:51:51;;;;;;;23.55;12.27;;;;;;;0.53;66.54;98988.22;5110358;28;20478;-76
2021/12/04 08:54:19;;;;;;;26.08;13.02;;;;;;;0.50;66.14;98987.47;5110294;28;20051;-76
2021/12/04 08:56:46;;;;;;;74.25;40.28;;;;;;;0.75;67.16;98992.94;5108127;27;20039;-76
2021/12/04 08:59:14;;;;;;;25.23;13.95;;;;;;;0.70;65.20;98982.41;5102308;28;20112;-75
2021/12/04 09:01:43;;;;;;;23.80;10.77;;;;;;;0.88;65.24;98980.13;5112303;28;20051;-76
2021/12/04 09:04:13;;;;;;;22.27;11.20;;;;;;;1.16;64.91;98976.59;5112873;28;20048;-78
2021/12/04 09:06:42;;;;;;;39.53;18.83;;;;;;;1.04;64.64;98977.88;5113270;28;20093;-75
2021/12/04 09:09:11;;;;;;;21.17;10.50;;;;;;;1.30;64.75;98974.38;5112953;28;20040;-75
2021/12/04 09:11:41;;;;;;;28.65;13.77;;;;;;;1.29;64.66;98969.09;5110787;27;20815;-76
2021/12/04 09:14:10;;;;;;;18.98;8.27;;;;;;;1.31;64.33;98972.59;5113305;27;20097;-76
2021/12/04 09:16:38;;;;;;;35.13;16.92;;;;;;;1.42;64.09;98967.78;5109754;28;20481;-75
2021/12/04 09:19:07;;;;;;;22.25;10.50;;;;;;;1.24;64.59;98968.38;5112035;27;20048;-76
2021/12/04 09:21:36;;;;;;;24.77;12.45;;;;;;;1.12;65.17;98965.22;5112405;28;20051;-76
2021/12/04 09:24:09;;;;;;;23.85;11.25;;;;;;;0.85;64.21;98954.50;5111890;28;20071;-76
2021/12/04 09:26:53;;;;;;;22.75;10.73;;;;;;;0.88;64.99;98950.88;5110646;28;20039;-76
2021/12/04 10:03:00;;;;;;;16.08;7.50;;;;;;;1.56;63.06;98899.91;4979332;28;20568;-76
2021/12/04 10:11:27;;;;;;;16.10;7.40;;;;;;;1.66;61.40;98893.34;4971972;28;20046;-76
2021/12/04 10:14:19;;;;;;;15.80;7.38;;;;;;;1.57;61.37;98896.34;4984315;28;20136;-77
2021/12/04 10:19:36;;;;;;;18.45;8.90;;;;;;;1.30;61.13;98893.69;5001535;28;20058;-77
2021/12/04 10:22:17;;;;;;;25.98;12.45;;;;;;;1.49;62.17;98885.09;5090513;28;20056;-76
2021/12/04 10:25:00;;;;;;;18.15;9.32;;;;;;;1.48;61.56;98880.69;5083329;28;20524;-77
2021/12/04 10:33:10;;;;;;;33.55;15.77;;;;;;;1.66;60.57;98866.72;5086667;28;20045;-76
2021/12/04 10:35:38;;;;;;;25.60;13.23;;;;;;;1.66;60.15;98874.72;5085200;28;20463;-77
2021/12/04 10:38:08;;;;;;;31.17;15.27;;;;;;;1.65;60.66;98856.16;5089193;28;20087;-77
2021/12/04 10:40:40;;;;;;;19.70;9.30;;;;;;;1.74;60.35;98861.13;5090182;28;20079;-77
2021/12/04 10:43:12;;;;;;;25.50;10.20;;;;;;;1.67;61.24;98860.47;5090844;28;20060;-78
2021/12/04 10:45:43;;;;;;;40.05;15.98;;;;;;;1.58;61.13;98855.47;5090402;28;20547;-77
2021/12/04 10:48:17;;;;;;;27.08;11.32;;;;;;;1.67;60.84;98863.13;5091257;28;20474;-77
2021/12/04 10:50:50;;;;;;;38.72;14.57;;;;;;;1.61;60.09;98852.72;5089738;28;20457;-78
2021/12/04 10:53:21;;;;;;;24.75;10.93;;;;;;;1.49;60.52;98855.81;5089577;28;20056;-78
2021/12/04 10:55:52;;;;;;;24.90;10.80;;;;;;;1.57;60.74;98854.59;5092657;28;20813;-77
2021/12/04 10:58:59;;;;;;;27.25;12.32;;;;;;;1.53;59.45;98849.47;5113613;27;20048;-76
2021/12/04 11:01:43;;;;;;;25.10;11.18;;;;;;;1.42;59.78;98849.81;5114393;27;20040;-78
2021/12/04 11:04:24;;;;;;;19.80;9.23;;;;;;;1.63;60.38;98842.88;5113103;28;20507;-78
2021/12/04 11:26:56;;;;;;;26.15;11.25;;;;;;;1.99;57.77;98833.59;5050410;28;20057;-77
2021/12/04 11:35:29;;;;;;;44.65;16.23;;;;;;;1.73;57.14;98822.97;5032649;28;20057;-77
2021/12/04 11:43:31;;;;;;;24.58;10.30;;;;;;;1.61;58.13;98826.09;5031812;28;20395;-76
2021/12/04 11:46:13;;;;;;;25.38;12.00;;;;;;;1.61;58.10;98849.16;5048471;28;20060;-75
2021/12/04 11:48:42;;;;;;;27.17;12.43;;;;;;;1.57;58.11;98822.66;5051467;28;20041;-76
2021/12/04 11:51:15;;;;;;;29.45;14.25;;;;;;;1.44;59.34;98824.91;5084742;28;20108;-76
2021/12/04 11:53:43;;;;;;;185.48;55.15;;;;;;;1.49;59.98;98822.06;5115086;28;20118;-77
2021/12/04 11:56:18;;;;;;;52.03;21.50;;;;;;;1.42;59.14;98825.88;5115016;28;20043;-78
2021/12/04 11:58:47;;;;;;;49.88;20.08;;;;;;;1.38;59.79;98826.91;5116130;28;20046;-78
2021/12/04 12:01:30;;;;;;;57.33;20.98;;;;;;;1.32;60.76;98811.16;5113163;28;20051;-78
2021/12/04 12:04:00;;;;;;;24.98;11.13;;;;;;;1.34;60.74;98810.16;5104176;27;20044;-75
2021/12/04 12:06:35;;;;;;;30.40;13.20;;;;;;;1.29;61.04;98805.03;5093698;28;20398;-75
2021/12/04 12:09:10;;;;;;;29.65;13.18;;;;;;;1.24;60.84;98806.09;5094252;28;20052;-75
2021/12/04 12:11:37;;;;;;;57.03;22.02;;;;;;;1.16;61.17;98801.03;5095709;28;20115;-75
2021/12/04 12:14:09;;;;;;;60.00;24.50;;;;;;;1.28;61.41;98802.41;5111366;28;20040;-75
2021/12/04 12:16:41;;;;;;;75.05;32.15;;;;;;;1.19;61.37;98795.59;5114513;28;20461;-78
2021/12/04 12:19:14;;;;;;;27.88;11.45;;;;;;;1.08;61.33;98795.13;5113739;28;20050;-76
2021/12/04 12:21:50;;;;;;;29.63;12.90;;;;;;;1.14;61.32;98787.81;5114199;28;20039;-75
2021/12/04 12:27:33;;;;;;;46.30;14.80;;;;;;;1.08;60.72;98777.38;5114496;27;20062;-75
2021/12/04 12:38:36;;;;;;;36.25;13.85;;;;;;;1.06;61.30;98784.53;5095118;28;20414;-75
2021/12/04 12:41:06;;;;;;;39.30;15.85;;;;;;;1.10;62.24;98786.16;5103547;28;20185;-76
2021/12/04 12:43:41;;;;;;;26.73;11.60;;;;;;;1.09;62.04;98781.78;5115257;28;20385;-75
2021/12/04 12:46:09;;;;;;;18.63;8.05;;;;;;;1.09;62.36;98783.56;5115198;28;20046;-73
2021/12/04 12:48:45;;;;;;;18.23;8.45;;;;;;;1.09;63.47;98784.44;5113617;27;20101;-74
2021/12/04 12:51:12;;;;;;;16.70;8.48;;;;;;;1.01;64.39;98791.78;5095607;28;20508;-75
2021/12/04 12:53:45;;;;;;;17.52;6.88;;;;;;;0.95;63.76;98786.66;5100848;28;20132;-75
2021/12/04 12:56:14;;;;;;;20.95;9.10;;;;;;;0.98;63.78;98786.56;5108766;28;20499;-74
2021/12/04 12:58:47;;;;;;;23.05;10.55;;;;;;;1.01;63.84;98791.78;5108632;28;20044;-74
2021/12/04 13:12:46;;;;;;;40.88;17.05;;;;;;;1.07;63.25;98804.00;5109957;28;20434;-75
2021/12/04 13:15:15;;;;;;;21.92;9.82;;;;;;;1.04;63.67;98810.31;5100324;28;20044;-75
2021/12/04 13:17:43;;;;;;;20.10;9.07;;;;;;;0.99;63.40;98810.47;5104721;28;20111;-76
2021/12/04 13:20:11;;;;;;;22.35;10.40;;;;;;;1.12;62.67;98810.94;5111260;28;20051;-74
2021/12/04 13:22:39;;;;;;;20.70;9.35;;;;;;;1.12;63.01;98808.25;5109712;28;20040;-74
2021/12/04 13:25:11;;;;;;;30.67;14.13;;;;;;;1.06;63.61;98803.16;5109532;28;20039;-74
2021/12/04 13:30:09;;;;;;;83.05;34.97;;;;;;;1.15;63.12;98810.81;5127825;28;20051;-74
2021/12/04 13:32:38;;;;;;;33.90;15.20;;;;;;;1.20;63.63;98809.78;5129863;28;20043;-74
2021/12/04 13:35:09;;;;;;;37.42;17.50;;;;;;;1.12;63.39;98808.25;5117012;27;20044;-74
2021/12/04 13:37:38;;;;;;;33.00;15.57;;;;;;;1.11;63.59;98809.19;5109499;28;20055;-75
2021/12/04 13:40:11;;;;;;;36.78;14.77;;;;;;;1.18;63.64;98809.81;5107120;27;20100;-75
2021/12/04 13:42:39;;;;;;;45.83;16.25;;;;;;;1.24;63.35;98806.97;5107362;27;20040;-76
2021/12/04 13:45:09;;;;;;;48.67;24.02;;;;;;;1.28;63.78;98805.06;5109333;28;20039;-75
2021/12/04 13:47:37;;;;;;;31.38;14.43;;;;;;;1.08;63.73;98803.09;5108891;27;20113;-75
2021/12/04 13:52:46;;;;;;;31.63;16.08;;;;;;;1.21;64.27;98798.22;5088792;28;20051;-76
2021/12/04 13:55:18;;;;;;;31.08;15.00;;;;;;;1.08;64.42;98795.13;5089122;28;20562;-76
2021/12/04 13:57:46;;;;;;;62.25;29.58;;;;;;;1.14;64.71;98794.91;5096518;28;20043;-75
2021/12/04 14:00:15;;;;;;;35.47;16.27;;;;;;;1.18;64.38;98793.00;5110124;28;20073;-75
2021/12/04 14:02:44;;;;;;;30.63;14.27;;;;;;;1.14;64.63;98792.25;5109892;28;20111;-76
2021/12/04 14:05:13;;;;;;;31.13;14.77;;;;;;;1.14;64.59;98790.47;5095849;28;20135;-75
2021/12/04 14:07:47;;;;;;;27.20;13.63;;;;;;;1.05;64.47;98789.91;5093687;28;20052;-75
2021/12/04 14:10:18;;;;;;;23.10;11.55;;;;;;;1.13;65.21;98791.38;5099235;28;20059;-75
2021/12/04 14:12:46;;;;;;;35.38;16.60;;;;;;;1.12;65.23;98796.75;5113294;28;20452;-75